createdAt,value
2018-06-10T00:01:28.223Z,99.90
2018-06-10T00:04:01.965Z,99.90
2018-06-10T00:06:35.612Z,99.90
2018-06-10T00:09:09.429Z,99.90
2018-06-10T00:11:43.317Z,99.90
2018-06-10T00:14:17.088Z,99.90
2018-06-10T00:16:50.758Z,99.90
2018-06-10T00:19:24.589Z,99.90
2018-06-10T00:21:58.290Z,99.90
2018-06-10T00:24:32.916Z,99.90
2018-06-10T00:27:06.716Z,99.90
2018-06-10T00:29:40.496Z,99.90
2018-06-10T00:32:14.233Z,99.90
2018-06-10T00:34:48.856Z,99.90
2018-06-10T00:37:22.445Z,99.90
2018-06-10T00:39:56.233Z,99.90
2018-06-10T00:42:30.753Z,99.90
2018-06-10T00:45:04.579Z,99.90
2018-06-10T00:47:38.397Z,99.90
2018-06-10T00:50:12.153Z,99.90
2018-06-10T00:52:45.868Z,99.90
2018-06-10T00:55:19.659Z,99.90
2018-06-10T00:57:53.303Z,99.90
2018-06-10T01:00:27.043Z,99.90
2018-06-10T01:03:00.876Z,99.90
2018-06-10T01:05:35.337Z,99.90
2018-06-10T01:08:09.074Z,99.90
2018-06-10T01:10:42.691Z,99.90
2018-06-10T01:13:17.239Z,99.90
2018-06-10T01:15:51.091Z,99.90
2018-06-10T01:18:24.929Z,99.90
2018-06-10T01:20:58.767Z,99.90
2018-06-10T01:23:32.498Z,99.90
2018-06-10T01:26:06.137Z,99.90
2018-06-10T01:28:39.911Z,99.90
2018-06-10T01:31:13.600Z,99.90
2018-06-10T01:33:47.306Z,99.90
2018-06-10T01:36:21.712Z,99.90
2018-06-10T01:38:55.423Z,99.90
2018-06-10T01:41:29.122Z,99.90
2018-06-10T01:44:03.632Z,99.90
2018-06-10T01:46:37.495Z,99.90
2018-06-10T01:49:11.259Z,99.90
2018-06-10T01:51:45.023Z,99.90
2018-06-10T01:54:18.843Z,99.90
2018-06-10T01:56:52.574Z,99.90
2018-06-10T01:59:26.375Z,99.90
2018-06-10T02:02:00.114Z,99.90
2018-06-10T02:04:34.499Z,99.90
2018-06-10T02:07:08.151Z,99.90
2018-06-10T02:09:41.823Z,99.90
2018-06-10T02:12:15.661Z,99.90
2018-06-10T02:14:49.436Z,99.90
2018-06-10T02:17:23.951Z,99.90
2018-06-10T02:19:57.773Z,99.90
2018-06-10T02:22:31.548Z,99.90
2018-06-10T02:25:05.252Z,99.90
2018-06-10T02:27:39.123Z,99.90
2018-06-10T02:30:13.692Z,99.90
2018-06-10T02:32:47.537Z,99.90
2018-06-10T02:35:21.267Z,99.90
2018-06-10T02:37:54.981Z,99.90
2018-06-10T02:40:29.628Z,99.90
2018-06-10T02:43:04.152Z,99.90
2018-06-10T02:45:37.919Z,99.90
2018-06-10T02:48:11.747Z,99.90
2018-06-10T02:50:46.288Z,99.90
2018-06-10T02:53:20.040Z,99.90
2018-06-10T02:55:53.805Z,99.90
2018-06-10T02:58:27.552Z,99.90
2018-06-10T03:01:01.323Z,99.90
2018-06-10T03:03:35.040Z,99.90
2018-06-10T03:06:08.885Z,99.90
2018-06-10T03:08:42.548Z,99.90
2018-06-10T03:11:16.391Z,99.90
2018-06-10T03:13:50.271Z,99.90
2018-06-10T03:16:23.939Z,99.90
2018-06-10T03:18:57.735Z,99.90
2018-06-10T03:21:31.380Z,99.90
2018-06-10T03:24:05.180Z,99.90
2018-06-10T03:26:39.040Z,99.90
2018-06-10T03:29:13.481Z,99.90
2018-06-10T03:31:47.139Z,99.90
2018-06-10T03:34:20.886Z,99.90
2018-06-10T03:36:54.596Z,99.90
2018-06-10T03:39:28.319Z,99.90
2018-06-10T03:42:02.127Z,99.90
2018-06-10T03:44:35.924Z,99.90
2018-06-10T03:47:09.615Z,99.90
2018-06-10T03:49:43.372Z,99.90
2018-06-10T03:52:17.052Z,99.90
2018-06-10T03:54:50.777Z,99.90
2018-06-10T03:57:25.447Z,99.90
2018-06-10T03:59:59.152Z,99.90
2018-06-10T04:02:32.990Z,99.90
2018-06-10T04:05:06.704Z,99.90
2018-06-10T04:07:40.493Z,99.90
2018-06-10T04:10:14.292Z,99.90
2018-06-10T04:12:48.112Z,99.90
2018-06-10T04:15:22.737Z,99.90
2018-06-10T04:17:57.236Z,99.90
2018-06-10T04:20:31.004Z,99.90
2018-06-10T04:23:04.763Z,99.90
2018-06-10T04:25:38.481Z,99.90
2018-06-10T04:28:12.300Z,99.90
2018-06-10T04:30:46.104Z,99.90
2018-06-10T04:33:19.844Z,99.90
2018-06-10T04:35:53.561Z,99.90
2018-06-10T04:38:27.901Z,99.90
2018-06-10T04:41:03.175Z,99.90
2018-06-10T04:43:36.860Z,99.90
2018-06-10T04:46:10.600Z,99.90
2018-06-10T04:48:44.220Z,99.90
2018-06-10T04:51:17.952Z,99.90
2018-06-10T04:53:51.807Z,99.90
2018-06-10T04:56:25.555Z,99.90
2018-06-10T04:58:59.343Z,99.90
2018-06-10T05:01:33.139Z,99.90
2018-06-10T05:04:06.937Z,99.90
2018-06-10T05:06:41.399Z,99.90
2018-06-10T05:09:15.293Z,99.90
2018-06-10T05:11:49.935Z,99.90
2018-06-10T05:14:24.491Z,99.90
2018-06-10T05:16:58.968Z,99.90
2018-06-10T05:19:32.745Z,99.90
2018-06-10T05:22:06.457Z,99.90
2018-06-10T05:24:40.204Z,99.90
2018-06-10T05:27:13.932Z,99.90
2018-06-10T05:29:47.726Z,99.90
2018-06-10T05:32:21.535Z,99.90
2018-06-10T05:34:56.154Z,99.90
2018-06-10T05:37:30.736Z,99.90
2018-06-10T05:40:04.370Z,99.90
2018-06-10T05:42:38.083Z,99.90
2018-06-10T05:45:11.844Z,99.90
2018-06-10T05:47:45.735Z,99.90
2018-06-10T05:50:20.325Z,99.90
2018-06-10T05:52:54.241Z,99.90
2018-06-10T05:55:27.906Z,99.90
2018-06-10T05:58:01.800Z,99.90
2018-06-10T06:00:35.729Z,99.90
2018-06-10T06:03:09.596Z,99.90
2018-06-10T06:05:43.323Z,99.90
2018-06-10T06:08:17.218Z,99.90
2018-06-10T06:10:50.907Z,99.90
2018-06-10T06:13:24.666Z,99.90
2018-06-10T06:15:58.498Z,99.90
2018-06-10T06:18:32.188Z,99.90
2018-06-10T06:21:06.861Z,99.90
2018-06-10T06:23:40.627Z,99.90
2018-06-10T06:26:15.279Z,99.90
2018-06-10T06:28:48.978Z,99.90
2018-06-10T06:31:23.460Z,99.90
2018-06-10T06:33:57.203Z,99.90
2018-06-10T06:36:31.703Z,99.90
2018-06-10T06:39:05.440Z,99.90
2018-06-10T06:41:39.165Z,99.90
2018-06-10T06:44:12.903Z,99.90
2018-06-10T06:46:46.619Z,99.90
2018-06-10T06:49:20.481Z,99.90
2018-06-10T06:51:54.153Z,99.90
2018-06-10T06:54:28.016Z,99.90
2018-06-10T06:57:01.893Z,99.90
2018-06-10T06:59:35.567Z,99.90
2018-06-10T07:02:09.359Z,99.90
2018-06-10T07:04:43.158Z,99.90
2018-06-10T07:07:16.963Z,99.90
2018-06-10T07:09:50.757Z,99.90
2018-06-10T07:12:24.568Z,99.90
2018-06-10T07:14:58.415Z,99.90
2018-06-10T07:17:32.956Z,99.90
2018-06-10T07:20:06.761Z,99.90
2018-06-10T07:22:40.525Z,99.90
2018-06-10T07:25:14.292Z,99.90
2018-06-10T07:27:48.152Z,99.90
2018-06-10T07:30:21.977Z,99.90
2018-06-10T07:32:55.740Z,99.90
2018-06-10T07:35:29.352Z,99.90
2018-06-10T07:38:03.171Z,99.90
2018-06-10T07:40:37.697Z,99.90
2018-06-10T07:43:12.294Z,99.90
2018-06-10T07:45:46.785Z,99.90
2018-06-10T07:48:21.450Z,99.90
2018-06-10T07:50:55.291Z,99.90
2018-06-10T07:53:29.039Z,99.90
2018-06-10T07:56:02.863Z,99.90
2018-06-10T07:58:38.292Z,99.90
2018-06-10T08:01:11.887Z,99.90
2018-06-10T08:03:45.739Z,99.90
2018-06-10T08:06:19.534Z,99.90
2018-06-10T08:08:53.456Z,99.90
2018-06-10T08:11:27.044Z,99.90
2018-06-10T08:14:00.877Z,99.90
2018-06-10T08:16:35.452Z,99.90
2018-06-10T08:19:09.281Z,99.90
2018-06-10T08:21:43.071Z,99.90
2018-06-10T08:24:16.813Z,99.90
2018-06-10T08:26:50.634Z,99.90
2018-06-10T08:29:24.438Z,99.90
2018-06-10T08:31:58.999Z,99.90
2018-06-10T08:34:33.538Z,99.90
2018-06-10T08:37:07.343Z,99.90
2018-06-10T08:39:41.756Z,99.90
2018-06-10T08:42:16.260Z,99.90
2018-06-10T08:44:50.113Z,99.90
2018-06-10T08:47:23.871Z,99.90
2018-06-10T08:49:58.438Z,99.90
2018-06-10T08:52:32.232Z,99.90
2018-06-10T08:55:06.090Z,99.90
2018-06-10T08:57:39.822Z,99.90
2018-06-10T09:00:13.475Z,99.90
2018-06-10T09:02:48.113Z,99.90
2018-06-10T09:05:21.812Z,99.90
2018-06-10T09:07:55.671Z,99.90
2018-06-10T09:10:29.485Z,99.90
2018-06-10T09:13:04.001Z,99.90
2018-06-10T09:15:37.824Z,99.90
2018-06-10T09:18:11.651Z,99.90
2018-06-10T09:20:46.308Z,99.90
2018-06-10T09:23:19.959Z,99.90
2018-06-10T09:25:53.785Z,99.90
2018-06-10T09:28:27.597Z,99.90
2018-06-10T09:31:01.392Z,99.90
2018-06-10T09:33:35.316Z,99.90
2018-06-10T09:36:09.869Z,99.90
2018-06-10T09:38:43.606Z,99.90
2018-06-10T09:41:18.094Z,99.90
2018-06-10T09:43:51.822Z,99.90
2018-06-10T09:46:25.696Z,99.90
2018-06-10T09:49:00.369Z,99.90
2018-06-10T09:51:34.002Z,99.90
2018-06-10T09:54:07.864Z,99.90
2018-06-10T09:56:41.598Z,99.90
2018-06-10T09:59:15.437Z,99.90
2018-06-10T10:01:49.232Z,99.90
2018-06-10T10:04:22.915Z,99.90
2018-06-10T10:06:56.701Z,99.90
2018-06-10T10:09:30.413Z,99.90
2018-06-10T10:12:04.240Z,99.90
2018-06-10T10:14:38.047Z,99.90
2018-06-10T10:17:11.604Z,99.90
2018-06-10T10:19:45.432Z,99.90
2018-06-10T10:22:19.156Z,99.90
2018-06-10T10:24:53.743Z,99.90
2018-06-10T10:27:28.372Z,99.90
2018-06-10T10:30:02.134Z,99.90
2018-06-10T10:32:35.912Z,99.90
2018-06-10T10:35:09.547Z,99.90
2018-06-10T10:37:43.368Z,99.90
2018-06-10T10:40:17.168Z,99.80
2018-06-10T10:42:51.120Z,99.90
2018-06-10T10:45:24.763Z,99.90
2018-06-10T10:47:58.424Z,99.90
2018-06-10T10:50:32.249Z,99.90
2018-06-10T10:53:06.806Z,99.90
2018-06-10T10:55:41.278Z,99.90
2018-06-10T10:58:15.206Z,99.90
2018-06-10T11:00:49.060Z,99.90
2018-06-10T11:03:23.627Z,99.90
2018-06-10T11:05:57.339Z,99.90
2018-06-10T11:08:31.286Z,99.90
2018-06-10T11:11:04.996Z,99.90
2018-06-10T11:13:39.427Z,99.10
2018-06-10T11:16:13.059Z,99.10
2018-06-10T11:18:46.739Z,98.90
2018-06-10T11:21:20.631Z,99.90
2018-06-10T11:23:55.163Z,99.90
2018-06-10T11:26:29.018Z,99.90
2018-06-10T11:29:02.843Z,99.90
2018-06-10T11:31:37.420Z,99.90
2018-06-10T11:34:11.854Z,99.90
2018-06-10T11:36:45.520Z,99.90
2018-06-10T11:39:19.403Z,99.90
2018-06-10T11:41:53.157Z,99.90
2018-06-10T11:44:26.970Z,99.90
2018-06-10T11:47:00.810Z,99.90
2018-06-10T11:49:35.383Z,99.90
2018-06-10T11:52:09.949Z,99.90
2018-06-10T11:54:43.737Z,99.90
2018-06-10T11:57:17.575Z,99.90
2018-06-10T11:59:51.335Z,99.90
2018-06-10T12:02:24.959Z,99.90
2018-06-10T12:04:58.828Z,99.90
2018-06-10T12:07:32.599Z,99.90
2018-06-10T12:10:06.468Z,99.90
2018-06-10T12:12:41.141Z,99.90
2018-06-10T12:15:14.864Z,99.90
2018-06-10T12:17:48.712Z,99.90
2018-06-10T12:20:22.552Z,99.90
2018-06-10T12:22:56.387Z,99.90
2018-06-10T12:25:30.222Z,99.90
2018-06-10T12:28:04.165Z,99.90
2018-06-10T12:30:37.931Z,99.90
2018-06-10T12:33:11.627Z,99.90
2018-06-10T12:35:46.242Z,99.90
2018-06-10T12:38:20.067Z,99.90
2018-06-10T12:40:54.019Z,99.90
2018-06-10T12:43:27.826Z,99.90
2018-06-10T12:46:01.583Z,99.90
2018-06-10T12:48:36.100Z,99.90
2018-06-10T12:51:09.792Z,99.90
2018-06-10T12:53:44.342Z,99.90
2018-06-10T12:56:18.243Z,99.90
2018-06-10T12:58:51.962Z,99.90
2018-06-10T13:01:25.792Z,99.90
2018-06-10T13:03:59.568Z,99.20
2018-06-10T13:06:33.140Z,98.00
2018-06-10T13:09:06.901Z,96.90
2018-06-10T13:11:40.762Z,97.80
2018-06-10T13:14:14.499Z,98.40
2018-06-10T13:16:48.316Z,98.00
2018-06-10T13:19:22.029Z,98.80
2018-06-10T13:21:55.879Z,98.00
2018-06-10T13:24:29.684Z,96.10
2018-06-10T13:27:03.513Z,97.70
2018-06-10T13:29:37.303Z,99.20
2018-06-10T13:32:11.108Z,98.40
2018-06-10T13:34:44.931Z,99.10
2018-06-10T13:37:18.738Z,97.00
2018-06-10T13:39:53.423Z,96.70
2018-06-10T13:42:27.172Z,96.80
2018-06-10T13:45:00.997Z,95.60
2018-06-10T13:47:34.882Z,96.00
2018-06-10T13:50:08.531Z,95.90
2018-06-10T13:52:42.359Z,96.10
2018-06-10T13:55:16.998Z,96.70
2018-06-10T13:57:50.760Z,96.70
2018-06-10T14:00:24.632Z,96.70
2018-06-10T14:02:58.433Z,96.80
2018-06-10T14:05:32.396Z,97.60
2018-06-10T14:08:06.115Z,96.80
2018-06-10T14:10:39.975Z,96.70
2018-06-10T14:13:13.747Z,97.80
2018-06-10T14:15:48.386Z,98.30
2018-06-10T14:18:22.091Z,98.20
2018-06-10T14:20:56.743Z,98.50
2018-06-10T14:23:30.335Z,98.50
2018-06-10T14:26:04.199Z,99.50
2018-06-10T14:28:37.926Z,99.90
2018-06-10T14:31:11.776Z,99.90
2018-06-10T14:33:45.529Z,99.70
2018-06-10T14:36:19.283Z,99.00
2018-06-10T14:38:53.153Z,99.90
2018-06-10T14:41:26.849Z,99.90
2018-06-10T14:44:00.697Z,99.90
2018-06-10T14:46:34.575Z,99.90
2018-06-10T14:49:08.280Z,99.90
2018-06-10T14:51:42.025Z,99.90
2018-06-10T14:54:15.837Z,99.90
2018-06-10T14:56:49.591Z,99.90
2018-06-10T14:59:23.995Z,99.90
2018-06-10T15:01:57.809Z,99.90
2018-06-10T15:04:31.463Z,99.90
2018-06-10T15:07:05.230Z,99.90
2018-06-10T15:09:39.755Z,99.90
2018-06-10T15:12:13.512Z,99.90
2018-06-10T15:14:47.385Z,99.90
2018-06-10T15:17:21.179Z,99.90
2018-06-10T15:19:54.953Z,99.90
2018-06-10T15:22:29.510Z,99.90
2018-06-10T15:25:03.271Z,99.90
2018-06-10T15:27:37.053Z,99.90
2018-06-10T15:30:10.880Z,99.90
2018-06-10T15:32:44.696Z,99.90
2018-06-10T15:35:18.491Z,99.90
2018-06-10T15:37:53.033Z,99.90
2018-06-10T15:40:26.879Z,99.90
2018-06-10T15:43:00.642Z,99.90
2018-06-10T15:45:34.421Z,99.90
2018-06-10T15:48:08.196Z,99.80
2018-06-10T15:50:41.960Z,99.50
2018-06-10T15:53:15.787Z,98.70
2018-06-10T15:55:49.622Z,98.50
2018-06-10T15:58:24.215Z,96.00
2018-06-10T16:00:58.845Z,96.70
2018-06-10T16:03:32.679Z,96.70
2018-06-10T16:08:38.834Z,93.30
2018-06-10T16:11:13.561Z,93.60
2018-06-10T16:13:47.329Z,93.70
2018-06-10T16:16:22.020Z,92.20
2018-06-10T16:18:55.744Z,92.20
2018-06-10T16:21:29.549Z,92.30
2018-06-10T16:24:04.071Z,90.00
2018-06-10T16:26:37.990Z,90.00
2018-06-10T16:29:11.678Z,90.50
2018-06-10T16:31:45.450Z,90.40
2018-06-10T16:34:19.261Z,91.30
2018-06-10T16:36:53.898Z,95.60
2018-06-10T16:39:27.711Z,95.70
2018-06-10T16:42:01.484Z,99.90
2018-06-10T16:44:35.284Z,99.90
2018-06-10T16:47:09.672Z,99.90
2018-06-10T16:49:44.108Z,99.90
2018-06-10T16:52:17.852Z,99.90
2018-06-10T16:54:51.646Z,99.90
2018-06-10T16:57:25.456Z,99.90
2018-06-10T16:59:59.387Z,99.90
2018-06-10T17:02:33.997Z,99.90
2018-06-10T17:05:07.907Z,99.90
2018-06-10T17:07:41.653Z,99.90
2018-06-10T17:10:15.468Z,99.90
2018-06-10T17:12:49.988Z,99.90
2018-06-10T17:15:23.800Z,99.90
2018-06-10T17:17:57.505Z,99.90
2018-06-10T17:20:31.215Z,99.90
2018-06-10T17:23:05.848Z,99.90
2018-06-10T17:25:39.653Z,99.90
2018-06-10T17:28:14.260Z,99.90
2018-06-10T17:30:48.120Z,99.90
2018-06-10T17:33:21.915Z,99.90
2018-06-10T17:35:55.700Z,99.90
2018-06-10T17:38:29.463Z,99.90
2018-06-10T17:41:03.322Z,99.90
2018-06-10T17:43:37.131Z,99.90
2018-06-10T17:46:10.956Z,99.90
2018-06-10T17:48:44.833Z,99.90
2018-06-10T17:51:18.725Z,99.90
2018-06-10T17:53:52.664Z,99.90
2018-06-10T17:56:27.265Z,99.90
2018-06-10T17:59:01.004Z,99.90
2018-06-10T18:01:34.787Z,99.90
2018-06-10T18:04:08.555Z,99.90
2018-06-10T18:06:42.458Z,99.90
2018-06-10T18:09:17.032Z,99.90
2018-06-10T18:11:50.851Z,99.90
2018-06-10T18:14:24.645Z,99.90
2018-06-10T18:16:58.280Z,99.90
2018-06-10T18:19:32.848Z,99.90
2018-06-10T18:22:06.567Z,99.90
2018-06-10T18:24:40.395Z,99.90
2018-06-10T18:27:14.344Z,99.90
2018-06-10T18:29:48.082Z,99.90
2018-06-10T18:32:22.610Z,99.90
2018-06-10T18:34:56.191Z,99.90
2018-06-10T18:37:30.011Z,99.90
2018-06-10T18:40:03.872Z,99.90
2018-06-10T18:42:38.434Z,99.90
2018-06-10T18:45:12.288Z,99.90
2018-06-10T18:47:46.213Z,99.90
2018-06-10T18:50:20.729Z,99.90
2018-06-10T18:52:54.388Z,99.90
2018-06-10T18:55:28.094Z,99.90
2018-06-10T18:58:02.620Z,99.90
2018-06-10T19:00:36.453Z,99.90
2018-06-10T19:03:10.195Z,99.90
2018-06-10T19:05:44.073Z,99.90
2018-06-10T19:08:18.715Z,99.90
2018-06-10T19:10:52.505Z,99.90
2018-06-10T19:13:27.079Z,99.90
2018-06-10T19:16:01.742Z,99.90
2018-06-10T19:18:35.473Z,99.90
2018-06-10T19:21:09.203Z,99.90
2018-06-10T19:23:43.005Z,99.90
2018-06-10T19:26:16.795Z,99.90
2018-06-10T19:28:50.484Z,99.90
2018-06-10T19:31:24.221Z,99.90
2018-06-10T19:33:58.157Z,99.90
2018-06-10T19:36:32.644Z,99.90
2018-06-10T19:39:06.528Z,99.90
2018-06-10T19:41:40.153Z,99.90
2018-06-10T19:44:13.916Z,99.90
2018-06-10T19:46:48.388Z,99.90
2018-06-10T19:49:22.226Z,99.90
2018-06-10T19:51:55.965Z,99.90
2018-06-10T19:54:29.815Z,99.90
2018-06-10T19:57:04.320Z,99.90
2018-06-10T19:59:38.121Z,99.90
2018-06-10T20:02:11.967Z,99.90
2018-06-10T20:04:46.460Z,99.90
2018-06-10T20:07:20.304Z,99.90
2018-06-10T20:09:54.230Z,99.90
2018-06-10T20:12:28.043Z,99.90
2018-06-10T20:15:02.620Z,99.90
2018-06-10T20:17:36.358Z,99.90
2018-06-10T20:20:10.167Z,99.90
2018-06-10T20:22:44.635Z,99.90
2018-06-10T20:25:18.257Z,99.90
2018-06-10T20:27:52.888Z,99.90
2018-06-10T20:30:26.766Z,99.90
2018-06-10T20:33:00.544Z,99.90
2018-06-10T20:35:34.265Z,99.90
2018-06-10T20:38:08.053Z,99.90
2018-06-10T20:40:41.867Z,99.90
2018-06-10T20:43:15.721Z,99.90
2018-06-10T20:45:49.595Z,99.90
2018-06-10T20:48:23.447Z,99.90
2018-06-10T20:50:58.004Z,99.90
2018-06-10T20:53:32.752Z,99.90
2018-06-10T20:56:06.532Z,99.90
2018-06-10T20:58:41.106Z,99.90
2018-06-10T21:01:14.769Z,99.90
2018-06-10T21:03:48.500Z,99.90
2018-06-10T21:06:22.345Z,99.90
2018-06-10T21:08:56.147Z,99.90
2018-06-10T21:11:29.920Z,99.90
2018-06-10T21:14:03.666Z,99.90
2018-06-10T21:16:37.463Z,99.90
2018-06-10T21:19:11.227Z,99.90
2018-06-10T21:21:45.061Z,99.90
2018-06-10T21:24:18.661Z,99.90
2018-06-10T21:26:52.291Z,99.90
2018-06-10T21:29:26.039Z,99.90
2018-06-10T21:31:59.937Z,99.90
2018-06-10T21:34:33.692Z,99.90
2018-06-10T21:37:08.214Z,99.90
2018-06-10T21:39:42.757Z,99.90
2018-06-10T21:42:16.513Z,99.90
2018-06-10T21:44:50.412Z,99.90
2018-06-10T21:47:24.056Z,99.90
2018-06-10T21:49:57.839Z,99.90
2018-06-10T21:52:32.355Z,99.90
2018-06-10T21:55:06.082Z,99.90
2018-06-10T21:57:39.868Z,99.90
2018-06-10T22:00:13.571Z,99.90
2018-06-10T22:02:47.378Z,99.90
2018-06-10T22:05:21.692Z,99.90
2018-06-10T22:07:55.403Z,99.90
2018-06-10T22:10:29.925Z,99.90
2018-06-10T22:13:04.460Z,99.90
2018-06-10T22:15:38.147Z,99.90
2018-06-10T22:18:11.879Z,99.90
2018-06-10T22:20:45.689Z,99.90
2018-06-10T22:23:19.483Z,99.90
2018-06-10T22:25:53.240Z,99.90
2018-06-10T22:28:27.679Z,99.90
2018-06-10T22:31:01.448Z,99.90
2018-06-10T22:33:35.226Z,99.90
2018-06-10T22:36:09.817Z,99.90
2018-06-10T22:38:44.337Z,99.90
2018-06-10T22:41:18.815Z,99.90
2018-06-10T22:43:52.655Z,99.90
2018-06-10T22:46:26.387Z,99.90
2018-06-10T22:49:00.028Z,99.90
2018-06-10T22:51:33.725Z,99.90
2018-06-10T22:54:10.264Z,99.90
2018-06-10T22:56:43.915Z,99.90
2018-06-10T22:59:17.728Z,99.90
2018-06-10T23:01:51.541Z,99.90
2018-06-10T23:04:25.157Z,99.90
2018-06-10T23:06:59.069Z,99.90
2018-06-10T23:09:32.712Z,99.90
2018-06-10T23:12:07.329Z,99.90
2018-06-10T23:14:41.048Z,99.90
2018-06-10T23:17:15.577Z,99.90
2018-06-10T23:19:49.280Z,99.90
2018-06-10T23:22:22.913Z,99.90
2018-06-10T23:24:56.807Z,99.90
2018-06-10T23:27:31.365Z,99.90
2018-06-10T23:30:05.964Z,99.90
2018-06-10T23:32:40.516Z,99.90
2018-06-10T23:35:14.152Z,99.90
2018-06-10T23:37:47.946Z,99.90
2018-06-10T23:40:22.483Z,99.90
2018-06-10T23:42:56.261Z,99.90
2018-06-10T23:45:30.700Z,99.90
2018-06-10T23:48:04.490Z,99.90
2018-06-10T23:50:38.330Z,99.90
2018-06-10T23:53:11.895Z,99.90
2018-06-10T23:55:46.531Z,99.90
2018-06-10T23:58:20.328Z,99.90
